Current Weather

Muskegon County

Muskegon, Michigan (KMKG)

Report from: Friday, February 23, 2024 2:55 PM EST
Current time: Friday, February 23, 2024 3:57 PM EST

Nearby weather – Weather history – Daily summaries
Weather forecast

Temperature6.1°C (43.0°F)
Wind chill3.4°C (38.2°F)
Dew point-3.3°C (26.1°F)
Winds 7 kts (3.6 m/s, 8.1 mph) North (360°)
Visibility10 mi. (16.1 km)
Clouds Ceiling: Broken clouds 3,300 ft. (1,006 m)
Overcast 4,300 ft. (1,311 m)
Altimeter29.70 in.Hg (1006 mB)
Relative humidity51 %
Density altitude-753 ft. (-230 m)
Sea-level pressure100.6 kPa (1006 mB, 29.71 in.Hg)
Remarks System requires maintenance
Automated weather observing station with precipitation discriminator
Precipitation sensor not operating
Flight conditions Visual Meteorological Conditions
Raw dataKMKG 231955Z 36007KT 10SM BKN033 OVC043 06/M03 A2970 RMK AO2 SLP061 T00611033 PNO $
An error has occurred. This application may no longer respond until reloaded. Reload 🗙